Time;durP1;ratioP1;P1;durP2;ratioP2;P2;SDS_P1;SDS_P2;PMS_P1;PMS_P2;Temp;Humidity;BMP_temperature;BMP_pressure;BME280_temperature;BME280_humidity;BME280_pressure;Samples;Min_cycle;Max_cycle;Signal;HPM_P1;HPM_P2
2023/10/10 00:01:00;;;;;;;5.07;3.13;;;14.60;99.90;;;;;;6109664;23;20369;-73
2023/10/10 00:03:27;;;;;;;4.10;3.00;;;14.60;99.90;;;;;;6108154;23;20396;-75
2023/10/10 00:05:55;;;;;;;4.93;4.00;;;14.60;99.90;;;;;;6107222;23;20451;-74
2023/10/10 00:08:27;;;;;;;4.40;3.67;;;14.60;99.90;;;;;;6107800;23;20368;-74
2023/10/10 00:10:55;;;;;;;5.10;3.90;;;14.60;99.90;;;;;;6110669;23;20687;-74
2023/10/10 00:13:23;;;;;;;7.40;5.57;;;14.60;99.90;;;;;;6108944;23;20423;-75
2023/10/10 00:15:50;;;;;;;7.43;5.10;;;14.50;99.90;;;;;;6107947;23;20460;-74
2023/10/10 00:18:18;;;;;;;6.67;5.30;;;14.50;99.90;;;;;;6107991;23;20361;-74
2023/10/10 00:20:47;;;;;;;6.60;4.73;;;14.50;99.90;;;;;;6108244;23;20364;-72
2023/10/10 00:23:16;;;;;;;7.27;5.30;;;14.50;99.90;;;;;;6107287;23;20401;-73
2023/10/10 00:25:44;;;;;;;6.90;5.00;;;14.40;99.90;;;;;;6083788;23;20384;-74
2023/10/10 00:28:20;;;;;;;5.17;3.87;;;14.40;99.90;;;;;;6108327;23;20380;-74
2023/10/10 00:30:46;;;;;;;7.77;5.93;;;14.40;99.90;;;;;;6109844;23;20442;-72
2023/10/10 00:33:16;;;;;;;6.07;4.63;;;14.30;99.90;;;;;;6083806;23;20435;-74
2023/10/10 00:35:47;;;;;;;8.57;6.70;;;14.30;99.90;;;;;;6108466;23;20368;-75
2023/10/10 00:38:24;;;;;;;7.20;5.30;;;14.30;99.90;;;;;;6108725;23;20409;-74
2023/10/10 00:40:50;;;;;;;8.03;5.87;;;14.20;99.90;;;;;;6108120;23;20456;-73
2023/10/10 00:43:17;;;;;;;10.27;7.00;;;14.20;99.90;;;;;;6109598;23;20635;-74
2023/10/10 00:45:52;;;;;;;11.37;6.03;;;14.20;99.90;;;;;;6109116;23;20650;-74
2023/10/10 00:48:22;;;;;;;8.40;6.33;;;14.20;99.90;;;;;;6110444;23;20420;-73
2023/10/10 00:51:20;;;;;;;9.37;6.40;;;14.10;99.90;;;;;;6106710;23;20369;-73
2023/10/10 00:53:44;;;;;;;9.40;6.67;;;14.10;99.90;;;;;;6130322;23;20436;-73
2023/10/10 00:56:13;;;;;;;9.00;6.20;;;14.10;99.90;;;;;;6107818;23;20385;-72
2023/10/10 00:58:39;;;;;;;8.90;6.20;;;14.00;99.90;;;;;;6084472;23;20378;-74
2023/10/10 01:01:13;;;;;;;9.10;5.90;;;14.00;99.90;;;;;;6131494;23;20439;-73
2023/10/10 01:03:41;;;;;;;8.27;6.77;;;14.00;99.90;;;;;;6105129;23;20396;-72
2023/10/10 01:06:24;;;;;;;10.13;6.77;;;14.00;99.90;;;;;;6104155;23;20435;-73
2023/10/10 01:08:59;;;;;;;11.80;8.67;;;14.00;99.90;;;;;;6105486;23;20391;-72
2023/10/10 01:11:26;;;;;;;14.40;9.17;;;14.00;99.90;;;;;;6106519;23;20403;-72
2023/10/10 01:13:56;;;;;;;10.87;8.53;;;13.90;99.90;;;;;;6080239;23;20903;-73
2023/10/10 01:16:25;;;;;;;13.30;8.47;;;13.90;99.90;;;;;;6106940;23;20420;-73
2023/10/10 01:18:57;;;;;;;15.00;9.20;;;13.90;99.90;;;;;;6128394;23;20379;-72
2023/10/10 01:21:31;;;;;;;9.93;6.93;;;13.90;99.90;;;;;;6128601;23;20426;-72
2023/10/10 01:24:05;;;;;;;8.23;6.47;;;13.90;99.90;;;;;;6129044;23;20404;-74
2023/10/10 01:26:35;;;;;;;8.50;5.73;;;13.90;99.90;;;;;;6106756;23;20428;-73
2023/10/10 01:29:12;;;;;;;7.53;5.97;;;13.90;99.90;;;;;;6106652;23;20364;-73
2023/10/10 01:31:38;;;;;;;7.03;5.53;;;13.90;99.90;;;;;;6104339;23;20654;-73
2023/10/10 01:34:09;;;;;;;8.20;5.67;;;13.80;99.90;;;;;;6081744;23;20939;-73
2023/10/10 01:36:37;;;;;;;8.63;6.07;;;13.80;99.90;;;;;;6105220;23;20357;-73
2023/10/10 01:39:23;;;;;;;10.63;7.50;;;13.80;99.90;;;;;;6129738;23;20447;-73
2023/10/10 01:41:51;;;;;;;13.90;9.23;;;13.80;99.90;;;;;;6104893;23;20438;-73
2023/10/10 01:44:22;;;;;;;13.67;8.10;;;13.90;99.90;;;;;;6105808;23;20388;-73
2023/10/10 01:46:51;;;;;;;10.77;8.40;;;13.90;99.90;;;;;;6105153;23;20384;-73
2023/10/10 01:49:20;;;;;;;13.23;9.80;;;14.00;99.90;;;;;;6107566;23;20399;-74
2023/10/10 01:51:53;;;;;;;11.00;7.67;;;14.00;99.90;;;;;;6106532;23;20363;-73
2023/10/10 01:54:19;;;;;;;13.73;8.40;;;14.00;99.90;;;;;;6104205;23;20404;-73
2023/10/10 01:56:45;;;;;;;11.30;8.60;;;13.90;99.90;;;;;;6080461;23;20440;-73
2023/10/10 01:59:19;;;;;;;15.70;10.03;;;13.90;99.90;;;;;;6103575;23;20140;-74
2023/10/10 02:01:47;;;;;;;10.90;8.40;;;13.90;99.90;;;;;;6104789;23;20393;-73
2023/10/10 02:04:14;;;;;;;12.30;8.00;;;13.90;99.90;;;;;;6106019;23;20377;-75
2023/10/10 02:06:45;;;;;;;13.17;9.40;;;13.80;99.90;;;;;;6106966;23;20465;-74
2023/10/10 02:09:27;;;;;;;12.43;8.70;;;13.80;99.90;;;;;;6106805;23;20372;-74
2023/10/10 02:11:54;;;;;;;12.73;9.07;;;13.80;99.90;;;;;;6105677;23;20757;-74
2023/10/10 02:14:25;;;;;;;14.17;9.73;;;13.80;99.90;;;;;;6090504;23;20419;-75
2023/10/10 02:16:55;;;;;;;14.00;9.17;;;13.80;99.90;;;;;;6106077;23;20829;-73
2023/10/10 02:19:40;;;;;;;12.47;8.67;;;13.80;99.90;;;;;;6081334;23;20440;-73
2023/10/10 02:22:22;;;;;;;12.23;7.93;;;13.80;99.90;;;;;;6105849;23;20377;-74
2023/10/10 02:25:30;;;;;;;15.33;9.57;;;13.80;99.90;;;;;;6082118;23;20405;-72
2023/10/10 02:27:54;;;;;;;10.67;7.80;;;13.70;99.90;;;;;;6103643;23;20427;-73
2023/10/10 02:30:24;;;;;;;11.00;7.57;;;13.70;99.90;;;;;;6105153;23;20398;-73
2023/10/10 02:32:50;;;;;;;9.90;8.03;;;13.70;99.90;;;;;;6104832;23;20444;-72
2023/10/10 02:35:27;;;;;;;13.60;8.43;;;13.60;99.90;;;;;;6130048;23;20381;-73
2023/10/10 02:37:54;;;;;;;11.53;7.97;;;13.60;99.90;;;;;;6105007;23;20140;-73
2023/10/10 02:40:30;;;;;;;11.40;7.77;;;13.60;99.90;;;;;;6105053;23;20361;-73
2023/10/10 02:45:44;;;;;;;11.20;8.10;;;13.50;99.90;;;;;;6103674;23;20376;-73
2023/10/10 02:48:20;;;;;;;14.57;7.10;;;13.50;99.90;;;;;;6128562;23;20696;-73
2023/10/10 02:50:46;;;;;;;13.17;8.57;;;13.50;99.90;;;;;;6103563;23;20463;-72
2023/10/10 02:53:14;;;;;;;10.83;6.70;;;13.50;99.90;;;;;;6127549;23;20742;-72
2023/10/10 02:55:50;;;;;;;9.87;7.20;;;13.50;99.90;;;;;;6103450;23;20428;-74
2023/10/10 02:58:27;;;;;;;15.77;8.33;;;13.40;99.90;;;;;;6105079;23;20434;-73
2023/10/10 03:00:57;;;;;;;13.27;6.83;;;13.50;99.90;;;;;;6104335;23;20475;-73
2023/10/10 03:03:24;;;;;;;14.27;7.30;;;13.40;99.90;;;;;;6104328;23;20794;-74
2023/10/10 03:05:51;;;;;;;10.73;8.07;;;13.40;99.90;;;;;;6104271;23;20375;-73
2023/10/10 03:08:34;;;;;;;9.43;7.17;;;13.40;99.90;;;;;;6105572;23;20423;-72
2023/10/10 03:11:14;;;;;;;10.73;6.67;;;13.40;99.90;;;;;;6102941;23;20484;-72
2023/10/10 03:13:54;;;;;;;11.03;7.67;;;13.40;99.90;;;;;;6103486;23;20430;-74
2023/10/10 03:21:43;;;;;;;12.43;6.80;;;13.30;99.90;;;;;;6104573;23;20451;-72
2023/10/10 03:30:17;;;;;;;9.87;7.00;;;13.20;99.90;;;;;;6104092;23;20373;-71
2023/10/10 03:34:56;;;;;;;9.73;6.77;;;13.10;99.90;;;;;;6105514;23;20396;-73
2023/10/10 03:39:58;;;;;;;8.27;6.50;;;13.00;99.90;;;;;;6117808;23;20411;-75
2023/10/10 05:24:24;;;;;;;9.60;6.37;;;12.80;99.90;;;;;;6113031;23;20400;-74
2023/10/10 05:26:56;;;;;;;15.33;9.47;;;12.80;99.90;;;;;;6088145;23;20372;-74
2023/10/10 05:29:24;;;;;;;12.60;7.00;;;12.80;99.90;;;;;;6088535;23;20380;-75
2023/10/10 05:31:51;;;;;;;13.43;7.00;;;12.80;99.90;;;;;;6114321;23;20356;-75
2023/10/10 05:34:20;;;;;;;10.50;6.83;;;12.80;99.90;;;;;;6112814;23;20469;-75
2023/10/10 05:36:46;;;;;;;11.27;6.77;;;12.80;99.90;;;;;;6113989;23;20389;-74
2023/10/10 05:39:17;;;;;;;7.10;5.33;;;12.80;99.90;;;;;;6114949;23;20368;-75
2023/10/10 05:41:47;;;;;;;6.77;4.60;;;12.80;99.90;;;;;;6112378;23;20180;-75
2023/10/10 05:44:15;;;;;;;8.00;6.20;;;12.80;99.90;;;;;;6114822;23;20392;-75
2023/10/10 05:46:40;;;;;;;8.30;5.67;;;12.70;99.90;;;;;;6089847;23;20388;-75
2023/10/10 05:49:06;;;;;;;8.83;6.37;;;12.80;99.90;;;;;;6092922;23;20387;-74
2023/10/10 05:51:33;;;;;;;10.87;7.37;;;12.80;99.90;;;;;;6113790;23;20209;-74
2023/10/10 05:53:59;;;;;;;9.57;6.37;;;12.80;99.90;;;;;;6113340;23;20502;-74
2023/10/10 05:56:25;;;;;;;10.40;7.67;;;12.80;99.90;;;;;;6090000;23;20377;-75
2023/10/10 05:58:52;;;;;;;11.30;7.47;;;12.80;99.90;;;;;;6091964;23;20236;-74
2023/10/10 06:01:18;;;;;;;10.80;6.77;;;12.80;99.90;;;;;;6113951;23;20163;-75
2023/10/10 06:03:45;;;;;;;8.83;6.63;;;12.80;99.90;;;;;;6139786;23;20491;-75
2023/10/10 06:06:13;;;;;;;10.60;6.10;;;12.80;99.90;;;;;;6115627;23;20360;-74
2023/10/10 06:08:42;;;;;;;9.43;6.63;;;12.80;99.90;;;;;;6091667;23;20375;-75
2023/10/10 06:11:19;;;;;;;11.33;7.93;;;12.80;99.90;;;;;;6139053;23;20392;-76
2023/10/10 06:13:45;;;;;;;13.53;8.73;;;12.90;99.90;;;;;;6090924;23;20439;-74
2023/10/10 06:16:14;;;;;;;8.80;7.23;;;12.90;99.90;;;;;;6115176;23;20439;-75
2023/10/10 06:18:46;;;;;;;13.30;9.30;;;12.90;99.90;;;;;;6113692;23;20500;-75
2023/10/10 06:21:12;;;;;;;12.00;8.53;;;13.00;99.90;;;;;;6116652;23;20382;-75
2023/10/10 06:23:41;;;;;;;13.27;7.50;;;13.00;99.90;;;;;;6115205;23;20421;-73
2023/10/10 06:26:07;;;;;;;10.27;7.20;;;13.10;99.90;;;;;;6115522;23;20392;-74
2023/10/10 06:28:44;;;;;;;11.83;7.93;;;13.20;99.90;;;;;;6112930;23;20404;-75
2023/10/10 06:31:14;;;;;;;11.67;7.67;;;13.20;99.90;;;;;;6114115;23;20475;-74
2023/10/10 06:33:43;;;;;;;11.90;7.73;;;13.20;99.90;;;;;;6089556;23;20420;-76
2023/10/10 06:41:38;;;;;;;9.80;7.03;;;13.40;99.90;;;;;;6112802;23;20427;-75
2023/10/10 06:44:05;;;;;;;11.27;7.10;;;13.50;99.90;;;;;;6111832;23;20402;-76
2023/10/10 06:46:32;;;;;;;9.60;7.00;;;13.50;99.90;;;;;;6114646;23;20384;-76
2023/10/10 06:49:04;;;;;;;11.87;7.60;;;13.60;99.90;;;;;;6115462;23;20361;-76
2023/10/10 06:51:33;;;;;;;10.00;6.10;;;13.70;99.90;;;;;;6140433;23;20380;-73
2023/10/10 06:54:02;;;;;;;11.60;8.07;;;13.70;99.90;;;;;;6139838;23;20447;-74
2023/10/10 06:59:16;;;;;;;11.80;7.03;;;13.90;99.90;;;;;;6115660;23;20444;-74
2023/10/10 07:01:45;;;;;;;11.30;7.13;;;13.90;99.90;;;;;;6117024;23;20369;-76
2023/10/10 07:04:13;;;;;;;10.13;7.10;;;14.00;99.90;;;;;;6119729;23;20401;-76
2023/10/10 07:06:47;;;;;;;7.87;6.00;;;14.00;99.90;;;;;;6119669;23;20383;-75
2023/10/10 07:09:27;;;;;;;8.80;6.63;;;14.10;99.90;;;;;;6071419;23;20380;-76
2023/10/10 07:11:56;;;;;;;8.00;6.03;;;14.20;99.90;;;;;;6036497;23;20382;-75
2023/10/10 07:14:25;;;;;;;10.43;7.10;;;14.40;99.90;;;;;;6033530;23;20875;-77
2023/10/10 07:16:57;;;;;;;7.63;6.47;;;14.40;99.90;;;;;;6029890;23;20386;-76
2023/10/10 07:19:30;;;;;;;9.30;6.20;;;14.50;99.90;;;;;;5982757;23;20382;-75
2023/10/10 07:21:59;;;;;;;13.40;7.50;;;14.60;99.90;;;;;;6031266;23;20422;-76
2023/10/10 07:24:40;;;;;;;11.30;6.93;;;14.70;99.90;;;;;;6079323;23;20447;-77
2023/10/10 07:27:11;;;;;;;11.10;7.43;;;14.80;99.90;;;;;;6121412;23;20391;-76
2023/10/10 07:32:50;;;;;;;7.63;6.07;;;15.00;99.90;;;;;;6087482;23;20432;-76
2023/10/10 07:35:25;;;;;;;8.93;6.90;;;15.10;99.90;;;;;;6040137;23;20377;-76
2023/10/10 07:37:52;;;;;;;6.93;6.00;;;15.10;99.90;;;;;;6037948;23;20392;-75
2023/10/10 07:40:28;;;;;;;10.30;7.20;;;15.20;99.90;;;;;;6061729;23;20382;-75
2023/10/10 07:43:02;;;;;;;8.77;7.10;;;15.20;99.90;;;;;;6060050;23;20389;-76
2023/10/10 07:45:33;;;;;;;10.60;7.50;;;15.20;99.90;;;;;;6038220;23;20397;-74
2023/10/10 07:48:38;;;;;;;13.80;7.90;;;15.30;99.90;;;;;;6041174;23;20461;-76
2023/10/10 07:51:27;;;;;;;9.17;6.03;;;15.30;99.90;;;;;;6069781;23;20393;-76
2023/10/10 07:54:12;;;;;;;10.47;6.47;;;15.30;99.90;;;;;;6065978;23;20448;-75
2023/10/10 07:57:03;;;;;;;9.37;6.47;;;15.40;99.90;;;;;;6062043;23;20437;-75
2023/10/10 07:59:27;;;;;;;11.87;7.77;;;15.40;99.90;;;;;;6061325;23;20401;-75
2023/10/10 08:01:55;;;;;;;9.17;7.07;;;15.50;99.90;;;;;;6085196;23;20373;-75
2023/10/10 08:04:22;;;;;;;9.33;7.20;;;15.50;99.90;;;;;;6091924;23;20422;-77
2023/10/10 08:06:48;;;;;;;8.83;6.50;;;15.60;99.90;;;;;;6122551;23;20379;-76
2023/10/10 08:11:40;;;;;;;12.07;7.20;;;15.80;99.90;;;;;;6097895;23;20167;-77
2023/10/10 08:14:10;;;;;;;14.50;8.60;;;15.80;99.90;;;;;;6098614;23;20430;-77
2023/10/10 08:16:39;;;;;;;8.20;6.57;;;15.90;99.90;;;;;;6099971;23;20422;-75
2023/10/10 08:19:10;;;;;;;10.60;6.17;;;16.00;99.90;;;;;;6077169;23;20407;-77
2023/10/10 08:21:51;;;;;;;9.00;6.20;;;16.00;99.90;;;;;;6101776;23;20360;-76
2023/10/10 08:24:19;;;;;;;11.73;8.60;;;16.10;99.90;;;;;;6089920;23;20444;-73
2023/10/10 08:26:46;;;;;;;16.67;8.73;;;16.20;99.90;;;;;;6088276;23;20410;-75
2023/10/10 08:29:14;;;;;;;11.10;7.87;;;16.30;99.90;;;;;;6063597;23;21000;-75
2023/10/10 08:31:43;;;;;;;9.50;6.50;;;16.30;99.90;;;;;;6088817;23;20155;-76
2023/10/10 08:34:14;;;;;;;9.77;7.53;;;16.40;99.90;;;;;;6042405;23;20434;-76
2023/10/10 08:36:43;;;;;;;10.37;7.20;;;16.50;99.90;;;;;;6040428;23;20394;-76
2023/10/10 08:41:43;;;;;;;10.30;6.27;;;16.70;99.90;;;;;;6063491;23;20406;-77
2023/10/10 08:44:20;;;;;;;8.87;6.90;;;16.80;99.90;;;;;;6042705;23;20388;-78
2023/10/10 08:46:50;;;;;;;8.63;7.00;;;16.90;99.90;;;;;;6015779;23;20393;-76
2023/10/10 08:49:17;;;;;;;14.33;8.30;;;17.10;99.90;;;;;;6016663;23;20386;-78
2023/10/10 08:51:48;;;;;;;9.03;6.47;;;17.20;99.90;;;;;;6065290;23;20830;-77
2023/10/10 08:54:15;;;;;;;8.73;5.97;;;17.30;99.90;;;;;;6066494;23;20452;-78
2023/10/10 08:56:42;;;;;;;7.47;4.83;;;17.50;99.90;;;;;;6064487;23;20408;-75
2023/10/10 08:59:11;;;;;;;8.50;5.70;;;17.60;99.90;;;;;;6066002;23;20413;-78
2023/10/10 09:01:39;;;;;;;8.37;6.03;;;17.80;99.90;;;;;;6067926;23;20401;-77
2023/10/10 09:04:12;;;;;;;9.67;6.13;;;18.00;99.90;;;;;;6066344;23;20400;-77
2023/10/10 09:09:37;;;;;;;7.83;6.00;;;18.20;99.90;;;;;;6039791;23;20388;-75
2023/10/10 09:12:09;;;;;;;7.90;5.30;;;18.30;99.90;;;;;;6020383;23;20396;-77
2023/10/10 09:14:50;;;;;;;7.87;5.53;;;18.50;99.90;;;;;;6041191;23;20410;-76
2023/10/10 09:17:35;;;;;;;8.97;6.13;;;18.60;99.90;;;;;;6064627;23;20467;-78
2023/10/10 09:20:32;;;;;;;12.37;7.80;;;18.60;99.90;;;;;;6066710;23;20392;-79
2023/10/10 09:29:26;;;;;;;9.70;6.80;;;18.90;99.90;;;;;;6040902;23;20373;-78
2023/10/10 09:32:05;;;;;;;8.30;6.50;;;19.00;99.90;;;;;;6001247;23;20431;-78
2023/10/10 09:34:54;;;;;;;11.17;7.40;;;19.10;99.90;;;;;;6043245;23;20469;-77
2023/10/10 09:38:04;;;;;;;9.43;6.67;;;19.10;99.90;;;;;;6110969;23;20483;-79
2023/10/10 09:40:39;;;;;;;8.30;5.03;;;19.10;99.90;;;;;;6127965;23;20390;-75
2023/10/10 09:46:25;;;;;;;8.27;6.03;;;19.30;99.90;;;;;;6101586;23;20444;-76
2023/10/10 09:54:36;;;;;;;11.77;7.00;;;19.60;99.90;;;;;;5961102;24;20432;-77
2023/10/10 09:57:17;;;;;;;9.17;7.00;;;19.70;99.90;;;;;;5982628;24;20372;-78
2023/10/10 09:59:44;;;;;;;9.20;6.50;;;19.80;99.90;;;;;;5982924;24;20369;-78
2023/10/10 10:02:43;;;;;;;12.03;7.43;;;19.80;99.90;;;;;;6006560;24;20407;-78
2023/10/10 10:05:16;;;;;;;8.63;6.13;;;19.90;99.90;;;;;;5927479;24;20479;-78
2023/10/10 10:08:21;;;;;;;10.23;6.90;;;20.00;99.80;;;;;;5966989;23;20456;-79
2023/10/10 10:11:27;;;;;;;11.30;6.73;;;20.00;99.00;;;;;;6065868;23;20409;-77
2023/10/10 10:14:17;;;;;;;9.47;6.33;;;20.00;98.80;;;;;;6071766;23;20462;-77
2023/10/10 10:17:30;;;;;;;9.10;5.90;;;20.10;98.20;;;;;;6094094;23;20409;-78
2023/10/10 10:20:20;;;;;;;11.17;6.60;;;20.20;97.90;;;;;;6092057;23;20393;-76
2023/10/10 10:22:52;;;;;;;11.57;6.87;;;20.30;97.70;;;;;;6022726;23;20483;-77
2023/10/10 10:25:28;;;;;;;26.67;13.70;;;20.30;96.80;;;;;;6067653;23;20413;-76
2023/10/10 10:28:00;;;;;;;11.00;8.00;;;20.40;96.80;;;;;;6068035;23;20421;-78
2023/10/10 10:32:59;;;;;;;11.40;5.57;;;20.50;95.20;;;;;;6046134;23;20418;-76
2023/10/10 10:36:14;;;;;;;14.27;8.50;;;20.50;95.20;;;;;;6068486;23;20407;-77
2023/10/10 10:39:19;;;;;;;10.97;7.20;;;20.50;95.00;;;;;;6070021;23;20386;-80
2023/10/10 10:41:47;;;;;;;9.00;5.27;;;20.50;94.50;;;;;;6033779;23;20454;-77
2023/10/10 10:45:23;;;;;;;9.33;6.83;;;20.50;94.40;;;;;;6066333;23;20382;-77
2023/10/10 10:51:26;;;;;;;8.40;5.60;;;20.70;93.80;;;;;;6114065;23;20432;-78
2023/10/10 10:54:35;;;;;;;7.50;4.97;;;20.70;93.30;;;;;;6069802;23;20451;-75
2023/10/10 10:57:04;;;;;;;8.77;5.50;;;20.70;93.10;;;;;;6095112;23;20397;-76
2023/10/10 10:59:35;;;;;;;5.90;4.47;;;20.60;92.50;;;;;;6069295;23;20404;-77
2023/10/10 11:02:28;;;;;;;7.80;5.77;;;20.60;92.80;;;;;;6047139;23;20386;-78
2023/10/10 11:04:54;;;;;;;12.20;6.83;;;20.70;92.40;;;;;;6069300;23;20405;-77
2023/10/10 11:07:41;;;;;;;12.83;6.77;;;20.60;92.00;;;;;;6070014;23;20405;-79
2023/10/10 11:10:10;;;;;;;6.93;5.50;;;20.70;91.50;;;;;;6023386;23;20164;-76
2023/10/10 11:12:44;;;;;;;12.00;6.10;;;20.60;91.70;;;;;;6045923;23;20492;-79
2023/10/10 11:15:11;;;;;;;10.70;5.63;;;20.60;91.50;;;;;;6021975;23;20397;-79
2023/10/10 11:18:07;;;;;;;10.53;6.00;;;20.60;91.80;;;;;;6047290;23;20392;-78
2023/10/10 11:20:55;;;;;;;8.70;5.50;;;20.60;91.90;;;;;;6072183;23;20468;-78
2023/10/10 11:26:00;;;;;;;9.13;5.07;;;20.60;91.80;;;;;;6150951;23;20741;-78
2023/10/10 11:28:47;;;;;;;8.10;5.13;;;20.60;91.80;;;;;;6128257;23;20371;-78
2023/10/10 11:44:33;;;;;;;9.43;5.47;;;20.80;91.00;;;;;;6134781;23;20538;-77
2023/10/10 11:47:24;;;;;;;9.23;6.33;;;20.90;90.80;;;;;;6152221;23;20410;-78
2023/10/10 11:50:07;;;;;;;11.10;5.80;;;21.00;90.40;;;;;;6137519;23;20444;-78
2023/10/10 11:56:22;;;;;;;7.20;5.20;;;21.10;89.90;;;;;;6037039;23;20423;-80
2023/10/10 11:58:55;;;;;;;8.50;5.50;;;21.10;89.30;;;;;;5956413;23;20378;-78
2023/10/10 12:07:42;;;;;;;6.00;4.33;;;21.20;88.20;;;;;;6114075;23;20459;-77
2023/10/10 12:10:53;;;;;;;7.60;4.50;;;21.30;86.50;;;;;;6099052;23;20404;-78
2023/10/10 12:13:33;;;;;;;8.13;3.80;;;21.40;86.40;;;;;;6097940;23;20443;-78
2023/10/10 12:16:10;;;;;;;6.93;4.60;;;21.40;86.10;;;;;;6099306;23;20384;-78
2023/10/10 12:18:49;;;;;;;8.27;4.63;;;21.60;84.80;;;;;;6096980;23;20352;-77
2023/10/10 12:28:00;;;;;;;6.57;4.50;;;21.80;82.80;;;;;;6122786;23;20511;-78
2023/10/10 12:30:31;;;;;;;6.20;5.00;;;21.80;82.10;;;;;;6098013;23;20434;-77
2023/10/10 12:33:01;;;;;;;6.50;4.60;;;21.90;80.10;;;;;;6036927;23;20461;-77
2023/10/10 12:35:52;;;;;;;8.03;4.70;;;22.00;78.90;;;;;;6041188;23;20417;-78
2023/10/10 12:38:40;;;;;;;7.10;4.47;;;22.10;78.20;;;;;;6021259;23;20381;-79
2023/10/10 12:46:46;;;;;;;6.43;4.50;;;22.20;76.40;;;;;;6090627;23;20461;-79
2023/10/10 12:49:19;;;;;;;6.87;5.20;;;22.30;76.40;;;;;;6068683;23;20382;-77
2023/10/10 12:55:26;;;;;;;6.23;4.07;;;22.40;74.50;;;;;;6094533;23;20436;-78
2023/10/10 12:58:15;;;;;;;7.30;5.23;;;22.40;73.60;;;;;;6041074;23;20394;-77
2023/10/10 19:05:28;;;;;;;9.83;5.77;;;17.50;99.90;;;;;;6106907;23;20459;-77
2023/10/10 19:08:08;;;;;;;6.40;5.13;;;17.50;99.90;;;;;;6098536;23;20388;-78
2023/10/10 19:10:50;;;;;;;7.43;5.17;;;17.50;99.90;;;;;;6052995;23;20391;-76
2023/10/10 19:13:51;;;;;;;7.93;5.33;;;17.50;99.90;;;;;;6032000;23;20423;-77
2023/10/10 19:19:56;;;;;;;8.80;4.83;;;17.50;99.90;;;;;;6108257;23;20466;-78
2023/10/10 19:22:22;;;;;;;7.43;5.13;;;17.50;99.90;;;;;;6128026;23;20412;-78
2023/10/10 19:24:50;;;;;;;8.80;5.23;;;17.50;99.90;;;;;;6079412;23;20420;-76
2023/10/10 19:27:35;;;;;;;12.20;5.77;;;17.50;99.90;;;;;;6100169;23;20144;-78
2023/10/10 19:30:16;;;;;;;8.73;5.70;;;17.50;99.90;;;;;;6073172;23;20419;-76
2023/10/10 19:32:49;;;;;;;7.53;5.13;;;17.50;99.90;;;;;;6096997;23;20409;-78
2023/10/10 19:41:03;;;;;;;10.03;7.07;;;17.50;99.90;;;;;;6145614;23;20470;-78
2023/10/10 19:43:36;;;;;;;8.87;6.67;;;17.50;99.90;;;;;;6126550;23;20399;-78
2023/10/10 19:46:15;;;;;;;9.37;6.80;;;17.60;99.90;;;;;;6055759;23;20391;-78
2023/10/10 19:48:41;;;;;;;9.63;6.50;;;17.60;99.90;;;;;;6102783;23;20418;-77
2023/10/10 19:51:25;;;;;;;7.50;5.80;;;17.60;99.90;;;;;;6081592;23;20454;-77
2023/10/10 19:54:06;;;;;;;10.90;6.97;;;17.50;99.90;;;;;;6100638;23;20444;-78
2023/10/10 19:56:57;;;;;;;7.27;5.67;;;17.40;99.90;;;;;;6096792;23;20396;-78
2023/10/10 19:59:25;;;;;;;8.37;5.20;;;17.40;99.90;;;;;;6075174;23;20396;-77
2023/10/10 20:01:52;;;;;;;8.33;5.97;;;17.30;99.90;;;;;;6075571;23;20421;-75
2023/10/10 20:04:31;;;;;;;7.50;5.10;;;17.20;99.90;;;;;;6075564;23;20405;-78
2023/10/10 20:10:11;;;;;;;7.50;5.57;;;17.10;99.90;;;;;;6103454;23;20459;-78
2023/10/10 20:15:30;;;;;;;7.57;5.23;;;17.00;99.90;;;;;;6127388;23;20467;-77
2023/10/10 20:17:57;;;;;;;6.27;5.07;;;16.90;99.90;;;;;;6097257;23;20396;-75
2023/10/10 20:20:25;;;;;;;9.97;6.53;;;16.90;99.90;;;;;;6071044;23;20418;-77
2023/10/10 20:25:51;;;;;;;9.80;6.63;;;16.90;99.90;;;;;;6099346;23;20459;-78
2023/10/10 20:28:34;;;;;;;10.00;6.47;;;17.00;99.90;;;;;;6123734;23;20376;-78
2023/10/10 20:31:08;;;;;;;10.43;6.77;;;17.00;99.90;;;;;;6122883;23;20411;-78
2023/10/10 20:33:37;;;;;;;10.00;6.33;;;17.00;99.90;;;;;;6122970;23;20758;-78
2023/10/10 20:36:06;;;;;;;9.10;5.73;;;17.00;99.90;;;;;;6123286;23;20394;-78
2023/10/10 20:38:50;;;;;;;8.23;5.87;;;17.00;99.90;;;;;;6098787;23;20390;-78
2023/10/10 20:41:40;;;;;;;6.73;4.87;;;16.90;99.90;;;;;;6122697;23;20346;-79
2023/10/10 20:49:53;;;;;;;9.90;7.33;;;16.80;99.90;;;;;;6093254;23;20508;-79
2023/10/10 20:52:25;;;;;;;7.23;6.23;;;16.70;99.90;;;;;;6091289;23;20396;-78
2023/10/10 20:54:52;;;;;;;7.77;5.80;;;16.70;99.90;;;;;;6089343;23;20405;-76
2023/10/10 20:57:19;;;;;;;7.97;5.60;;;16.70;99.90;;;;;;6090436;23;20372;-75
2023/10/10 20:59:50;;;;;;;10.20;6.43;;;16.60;99.90;;;;;;6090971;23;20390;-76
2023/10/10 21:02:16;;;;;;;7.90;6.20;;;16.60;99.90;;;;;;6068551;23;20460;-77
2023/10/10 21:04:45;;;;;;;9.00;6.03;;;16.50;99.90;;;;;;6069856;23;20456;-78
2023/10/10 21:07:13;;;;;;;6.73;5.10;;;16.50;99.90;;;;;;6117982;23;20150;-78
2023/10/10 21:09:44;;;;;;;7.77;5.70;;;16.50;99.90;;;;;;6067936;23;20439;-76
2023/10/10 21:12:20;;;;;;;7.63;4.93;;;16.50;99.90;;;;;;6093514;23;20787;-77
2023/10/10 21:14:46;;;;;;;9.03;5.47;;;16.40;99.90;;;;;;6094455;23;20451;-76
2023/10/10 21:17:16;;;;;;;6.73;5.10;;;16.40;99.90;;;;;;6141561;23;20357;-75
2023/10/10 21:20:12;;;;;;;8.57;5.83;;;16.40;99.90;;;;;;6116082;23;20153;-78
2023/10/10 21:22:43;;;;;;;7.17;5.33;;;16.40;99.90;;;;;;6094787;23;20418;-78
2023/10/10 21:25:10;;;;;;;9.73;6.57;;;16.30;99.90;;;;;;6096085;23;20425;-78
2023/10/10 21:27:39;;;;;;;7.87;5.70;;;16.30;99.90;;;;;;6118331;23;20371;-75
2023/10/10 21:30:06;;;;;;;8.23;5.10;;;16.30;99.90;;;;;;6092647;23;20375;-76
2023/10/10 21:32:33;;;;;;;10.07;5.97;;;16.30;99.90;;;;;;6092959;23;20424;-76
2023/10/10 21:35:08;;;;;;;10.00;5.27;;;16.20;99.90;;;;;;6116865;23;20415;-75
2023/10/10 21:37:38;;;;;;;8.13;4.73;;;16.20;99.90;;;;;;6091646;23;20372;-75
2023/10/10 21:40:12;;;;;;;7.63;6.10;;;16.20;99.90;;;;;;6116726;23;20361;-75
2023/10/10 21:42:46;;;;;;;9.13;5.80;;;16.20;99.90;;;;;;6116821;23;20444;-75
2023/10/10 21:45:13;;;;;;;7.90;4.87;;;16.20;99.90;;;;;;6092361;23;20406;-75
2023/10/10 21:47:39;;;;;;;8.07;4.77;;;16.20;99.90;;;;;;6115913;23;20382;-74
2023/10/10 21:50:11;;;;;;;7.17;5.47;;;16.10;99.90;;;;;;6069082;23;20377;-74
2023/10/10 21:52:40;;;;;;;7.13;4.73;;;16.10;99.90;;;;;;6092558;23;20413;-75
2023/10/10 21:55:08;;;;;;;5.03;3.73;;;16.10;99.90;;;;;;6116068;23;20405;-76
2023/10/10 21:57:36;;;;;;;7.13;4.53;;;16.10;99.90;;;;;;6089998;23;20389;-75
2023/10/10 22:00:49;;;;;;;6.83;4.30;;;16.10;99.90;;;;;;6116948;23;20440;-75
2023/10/10 22:03:08;;;;;;;6.07;3.80;;;16.00;99.90;;;;;;6104266;23;20388;-76
2023/10/10 22:05:35;;;;;;;5.93;4.53;;;16.00;99.90;;;;;;6114536;23;20518;-76
2023/10/10 22:08:06;;;;;;;9.77;5.03;;;16.00;99.90;;;;;;6119361;23;20385;-76
2023/10/10 22:10:34;;;;;;;7.13;5.07;;;16.00;99.90;;;;;;6075412;23;20380;-77
2023/10/10 22:13:11;;;;;;;6.30;4.53;;;16.10;99.90;;;;;;6119851;23;20472;-75
2023/10/10 22:15:38;;;;;;;6.90;5.57;;;16.10;99.90;;;;;;6121799;23;20378;-77
2023/10/10 22:18:11;;;;;;;4.60;3.90;;;16.10;99.90;;;;;;6123441;23;20366;-74
2023/10/10 22:20:37;;;;;;;6.33;4.50;;;16.10;99.90;;;;;;6100824;23;20173;-75
2023/10/10 22:23:04;;;;;;;6.83;4.77;;;16.10;99.90;;;;;;6097538;23;20398;-75
2023/10/10 22:25:33;;;;;;;5.73;4.10;;;16.00;99.90;;;;;;6094524;23;20675;-75
2023/10/10 22:28:01;;;;;;;9.23;4.77;;;16.00;99.90;;;;;;6071453;23;20155;-75
2023/10/10 22:30:27;;;;;;;7.97;5.07;;;15.90;99.90;;;;;;6095583;23;20404;-74
2023/10/10 22:32:58;;;;;;;6.60;4.80;;;15.90;99.90;;;;;;6095110;23;20443;-75
2023/10/10 22:35:27;;;;;;;7.17;4.77;;;15.90;99.90;;;;;;6092999;23;20430;-75
2023/10/10 22:37:56;;;;;;;7.33;4.53;;;15.80;99.90;;;;;;6117906;23;20377;-76
2023/10/10 22:40:26;;;;;;;6.50;5.20;;;15.80;99.90;;;;;;6093551;23;20369;-75
2023/10/10 22:42:53;;;;;;;7.20;4.77;;;15.80;99.90;;;;;;6093954;23;20383;-73
2023/10/10 22:45:19;;;;;;;7.07;5.10;;;15.70;99.90;;;;;;6091945;23;20375;-76
2023/10/10 22:47:53;;;;;;;7.67;4.93;;;15.70;99.90;;;;;;6091162;23;20514;-75
2023/10/10 22:50:24;;;;;;;7.63;5.00;;;15.70;99.90;;;;;;6114889;23;20137;-76
2023/10/10 22:52:52;;;;;;;6.90;4.47;;;15.70;99.90;;;;;;6089975;23;20448;-75
2023/10/10 22:55:20;;;;;;;6.17;5.27;;;15.70;99.90;;;;;;6089416;23;20374;-74
2023/10/10 22:57:50;;;;;;;8.77;5.23;;;15.60;99.90;;;;;;6112538;23;20377;-75
2023/10/10 23:00:25;;;;;;;7.40;5.47;;;15.60;99.90;;;;;;6089063;23;20381;-75
2023/10/10 23:02:56;;;;;;;7.50;5.53;;;15.60;99.90;;;;;;6111184;23;20404;-73
2023/10/10 23:05:26;;;;;;;8.63;5.10;;;15.60;99.90;;;;;;6113720;23;20432;-73
2023/10/10 23:07:53;;;;;;;8.03;5.17;;;15.60;99.90;;;;;;6113073;23;20368;-75